createdAt,value
2022-12-11T00:02:09.385Z,12.60
2022-12-11T00:04:22.827Z,9.90
2022-12-11T00:06:37.120Z,8.70
2022-12-11T00:08:51.752Z,5.50
2022-12-11T00:11:05.159Z,5.10
2022-12-11T00:13:18.627Z,7.20
2022-12-11T00:15:32.190Z,4.40
2022-12-11T00:17:45.603Z,5.00
2022-12-11T00:19:59.038Z,5.40
2022-12-11T00:22:12.440Z,3.70
2022-12-11T00:24:25.943Z,2.60
2022-12-11T00:26:39.283Z,3.70
2022-12-11T00:28:56.221Z,2.40
2022-12-11T00:31:13.763Z,2.90
2022-12-11T00:33:29.784Z,2.30
2022-12-11T00:35:44.418Z,1.80
2022-12-11T00:37:57.770Z,2.40
2022-12-11T00:40:12.277Z,1.60
2022-12-11T00:42:25.778Z,1.50
2022-12-11T00:44:39.376Z,1.40
2022-12-11T00:46:53.396Z,3.50
2022-12-11T00:49:06.619Z,7.40
2022-12-11T00:51:20.046Z,9.90
2022-12-11T00:53:33.689Z,9.80
2022-12-11T00:55:47.962Z,10.20
2022-12-11T00:58:01.434Z,8.50
2022-12-11T01:00:16.642Z,2.70
2022-12-11T01:02:29.977Z,2.50
2022-12-11T01:04:43.767Z,2.80
2022-12-11T01:06:57.045Z,2.60
2022-12-11T01:09:32.390Z,3.60
2022-12-11T01:11:46.699Z,2.70
2022-12-11T01:14:00.505Z,3.70
2022-12-11T01:16:20.544Z,2.90
2022-12-11T01:18:33.896Z,3.40
2022-12-11T01:20:47.685Z,2.50
2022-12-11T01:23:03.433Z,2.50
2022-12-11T01:25:17.939Z,1.60
2022-12-11T01:27:31.265Z,1.40
2022-12-11T01:29:44.921Z,2.20
2022-12-11T01:31:58.203Z,1.70
2022-12-11T01:34:11.691Z,1.90
2022-12-11T01:36:26.158Z,1.50
2022-12-11T01:38:39.503Z,2.50
2022-12-11T01:40:54.891Z,2.00
2022-12-11T01:43:08.116Z,1.60
2022-12-11T01:45:39.891Z,2.00
2022-12-11T01:47:53.413Z,1.00
2022-12-11T01:50:06.967Z,2.00
2022-12-11T01:52:23.311Z,2.20
2022-12-11T01:54:37.635Z,1.00
2022-12-11T01:56:53.583Z,1.10
2022-12-11T01:59:09.816Z,1.10
2022-12-11T02:01:45.342Z,8.30
2022-12-11T02:04:02.208Z,7.40
2022-12-11T02:06:36.418Z,1.60
2022-12-11T02:08:49.689Z,1.80
2022-12-11T02:11:12.871Z,6.90
2022-12-11T02:13:34.441Z,1.60
2022-12-11T02:15:58.648Z,1.30
2022-12-11T02:18:23.680Z,0.90
2022-12-11T02:20:41.715Z,0.80
2022-12-11T02:23:10.045Z,1.20
2022-12-11T02:25:30.618Z,2.30
2022-12-11T02:27:49.886Z,0.60
2022-12-11T02:30:08.226Z,0.60
2022-12-11T02:32:25.329Z,6.40
2022-12-11T02:34:43.572Z,1.10
2022-12-11T02:37:01.394Z,1.20
2022-12-11T02:39:18.968Z,3.30
2022-12-11T02:41:33.752Z,0.90
2022-12-11T02:43:49.071Z,0.90
2022-12-11T02:46:04.163Z,2.10
2022-12-11T02:48:18.586Z,2.20
2022-12-11T02:50:32.939Z,0.80
2022-12-11T02:52:49.222Z,0.50
2022-12-11T02:55:05.133Z,0.60
2022-12-11T02:57:24.999Z,3.70
2022-12-11T02:59:42.133Z,8.40
2022-12-11T03:01:55.644Z,4.50
2022-12-11T03:04:09.031Z,2.50
2022-12-11T03:06:25.599Z,1.30
2022-12-11T03:08:38.804Z,1.20
2022-12-11T03:10:52.139Z,0.80
2022-12-11T03:13:06.363Z,2.40
2022-12-11T03:15:22.305Z,4.00
2022-12-11T03:17:41.162Z,1.70
2022-12-11T03:20:07.615Z,1.00
2022-12-11T03:22:25.729Z,0.90
2022-12-11T03:24:42.423Z,0.50
2022-12-11T03:27:00.961Z,0.70
2022-12-11T03:29:22.456Z,0.90
2022-12-11T03:31:42.655Z,0.70
2022-12-11T03:34:01.712Z,0.80
2022-12-11T03:36:18.860Z,1.00
2022-12-11T03:38:36.449Z,1.40
2022-12-11T03:40:53.672Z,1.20
2022-12-11T03:43:09.243Z,1.40
2022-12-11T03:45:25.835Z,1.00
2022-12-11T03:47:41.167Z,1.30
2022-12-11T03:49:55.964Z,2.70
2022-12-11T03:52:10.983Z,4.20
2022-12-11T03:54:24.810Z,4.80
2022-12-11T03:56:40.589Z,7.40
2022-12-11T03:58:53.914Z,3.30
2022-12-11T04:01:07.301Z,5.60
2022-12-11T04:03:21.145Z,13.10
2022-12-11T04:05:34.581Z,2.40
2022-12-11T04:07:47.884Z,3.40
2022-12-11T04:10:01.413Z,4.70
2022-12-11T04:12:15.057Z,6.80
2022-12-11T04:14:44.610Z,7.60
2022-12-11T04:17:00.390Z,2.20
2022-12-11T04:19:33.124Z,4.00
2022-12-11T04:22:03.085Z,1.90
2022-12-11T04:24:19.986Z,2.10
2022-12-11T04:26:33.465Z,1.70
2022-12-11T04:28:48.423Z,1.20
2022-12-11T04:31:01.635Z,1.70
2022-12-11T04:33:14.955Z,0.70
2022-12-11T04:35:28.470Z,1.20
2022-12-11T04:37:42.690Z,1.00
2022-12-11T04:39:56.310Z,0.50
2022-12-11T04:42:09.642Z,0.70
2022-12-11T04:44:22.980Z,2.90
2022-12-11T04:46:36.468Z,2.60
2022-12-11T04:48:56.720Z,1.70
2022-12-11T04:51:10.694Z,0.90
2022-12-11T04:53:23.921Z,1.10
2022-12-11T04:55:37.296Z,1.20
2022-12-11T04:57:50.627Z,1.50
2022-12-11T05:00:05.892Z,0.90
2022-12-11T05:02:19.333Z,0.60
2022-12-11T05:04:36.415Z,0.50
2022-12-11T05:06:52.271Z,0.50
2022-12-11T05:09:05.481Z,0.90
2022-12-11T05:11:20.590Z,2.40
2022-12-11T05:13:35.720Z,2.50
2022-12-11T05:15:48.900Z,2.40
2022-12-11T05:18:02.146Z,2.40
2022-12-11T05:20:16.997Z,9.50
2022-12-11T05:22:30.260Z,12.50
2022-12-11T05:24:43.557Z,12.40
2022-12-11T05:26:56.736Z,14.50
2022-12-11T05:29:09.955Z,14.70
2022-12-11T05:31:25.412Z,16.20
2022-12-11T05:33:39.094Z,14.70
2022-12-11T05:35:55.795Z,14.60
2022-12-11T05:38:09.146Z,14.10
2022-12-11T05:40:22.734Z,13.30
2022-12-11T05:42:36.122Z,15.40
2022-12-11T05:44:49.559Z,13.00
2022-12-11T05:47:03.015Z,13.50
2022-12-11T05:49:19.762Z,14.90
2022-12-11T05:51:35.492Z,11.80
2022-12-11T05:53:49.620Z,13.80
2022-12-11T05:56:08.367Z,15.70
2022-12-11T05:58:21.764Z,16.30
2022-12-11T06:00:36.278Z,13.30
2022-12-11T06:02:49.965Z,16.20
2022-12-11T06:05:03.487Z,16.40
2022-12-11T06:07:16.878Z,16.10
2022-12-11T06:09:30.429Z,17.70
2022-12-11T06:11:43.796Z,14.80
2022-12-11T06:13:58.102Z,13.50
2022-12-11T06:16:13.928Z,14.50
2022-12-11T06:18:27.711Z,12.40
2022-12-11T06:20:41.236Z,11.90
2022-12-11T06:22:54.662Z,11.70
2022-12-11T06:25:08.573Z,10.90
2022-12-11T06:27:22.509Z,12.10
2022-12-11T06:29:35.962Z,7.80
2022-12-11T06:31:49.425Z,7.90
2022-12-11T06:34:02.900Z,6.80
2022-12-11T06:36:17.939Z,7.10
2022-12-11T06:38:31.387Z,7.20
2022-12-11T06:40:44.858Z,7.60
2022-12-11T06:42:58.151Z,8.30
2022-12-11T06:45:13.383Z,6.80
2022-12-11T06:47:26.945Z,6.50
2022-12-11T06:49:40.279Z,5.40
2022-12-11T06:51:53.616Z,6.60
2022-12-11T06:54:07.088Z,6.80
2022-12-11T06:56:21.629Z,8.00
2022-12-11T06:58:34.918Z,8.50
2022-12-11T07:00:48.582Z,9.10
2022-12-11T07:03:02.055Z,6.80
2022-12-11T07:05:15.850Z,7.60
2022-12-11T07:07:29.384Z,7.10
2022-12-11T07:09:44.312Z,10.50
2022-12-11T07:11:58.397Z,10.10
2022-12-11T07:14:12.315Z,10.50
2022-12-11T07:16:25.928Z,10.30
2022-12-11T07:18:39.822Z,12.00
2022-12-11T07:20:53.243Z,12.00
2022-12-11T07:23:06.634Z,11.90
2022-12-11T07:25:20.097Z,13.50
2022-12-11T07:27:33.393Z,16.50
2022-12-11T07:29:46.716Z,13.30
2022-12-11T07:32:00.803Z,11.30
2022-12-11T07:34:15.683Z,14.50
2022-12-11T07:36:30.068Z,11.10
2022-12-11T07:38:43.728Z,9.00
2022-12-11T07:40:57.358Z,11.80
2022-12-11T07:43:10.799Z,11.50
2022-12-11T07:45:27.761Z,14.20
2022-12-11T07:47:41.049Z,8.90
2022-12-11T07:49:54.587Z,6.90
2022-12-11T07:52:08.067Z,6.40
2022-12-11T07:54:22.268Z,6.10
2022-12-11T07:56:36.533Z,7.80
2022-12-11T07:58:50.142Z,12.40
2022-12-11T08:01:03.540Z,13.60
2022-12-11T08:03:16.962Z,15.00
2022-12-11T08:05:30.313Z,13.40
2022-12-11T08:07:43.534Z,11.60
2022-12-11T08:09:56.828Z,14.40
2022-12-11T08:12:10.367Z,15.50
2022-12-11T08:14:24.054Z,11.70
2022-12-11T08:16:37.786Z,11.30
2022-12-11T08:18:51.697Z,10.30
2022-12-11T08:21:08.058Z,9.20
2022-12-11T08:23:21.320Z,7.50
2022-12-11T08:25:35.861Z,8.90
2022-12-11T08:27:50.580Z,7.90
2022-12-11T08:30:04.220Z,6.50
2022-12-11T08:32:19.223Z,7.20
2022-12-11T08:34:33.874Z,5.30
2022-12-11T08:36:49.589Z,4.20
2022-12-11T08:39:03.834Z,5.30
2022-12-11T08:41:19.698Z,3.80
2022-12-11T08:43:33.516Z,3.80
2022-12-11T08:45:47.147Z,2.80
2022-12-11T08:48:01.929Z,2.60
2022-12-11T08:50:16.203Z,1.70
2022-12-11T08:52:32.563Z,1.00
2022-12-11T08:54:46.793Z,1.60
2022-12-11T08:57:00.447Z,1.00
2022-12-11T08:59:13.775Z,1.10
2022-12-11T09:01:29.089Z,1.10
2022-12-11T09:03:43.712Z,1.00
2022-12-11T09:05:57.158Z,1.40
2022-12-11T09:08:10.791Z,0.90
2022-12-11T09:10:24.585Z,0.90
2022-12-11T09:12:39.115Z,1.40
2022-12-11T09:14:52.286Z,1.40
2022-12-11T09:17:07.410Z,0.80
2022-12-11T09:19:20.993Z,1.10
2022-12-11T09:21:35.129Z,0.70
2022-12-11T09:23:48.843Z,0.90
2022-12-11T09:26:02.240Z,1.10
2022-12-11T09:28:15.638Z,0.90
2022-12-11T09:30:29.053Z,1.00
2022-12-11T09:32:42.867Z,0.70
2022-12-11T09:34:58.726Z,0.90
2022-12-11T09:37:12.254Z,1.30
2022-12-11T09:39:25.894Z,0.60
2022-12-11T09:41:49.602Z,0.60
2022-12-11T09:44:10.794Z,0.60
2022-12-11T09:46:24.992Z,0.60
2022-12-11T09:48:40.414Z,0.60
2022-12-11T09:50:55.291Z,1.80
2022-12-11T09:53:17.068Z,0.40
2022-12-11T09:55:36.307Z,0.70
2022-12-11T09:57:58.374Z,0.40
2022-12-11T10:00:23.864Z,0.50
2022-12-11T10:02:46.135Z,0.50
2022-12-11T10:05:16.950Z,0.50
2022-12-11T10:07:38.322Z,0.50
2022-12-11T10:09:59.801Z,0.50
2022-12-11T10:12:32.550Z,0.40
2022-12-11T10:14:59.718Z,0.50
2022-12-11T10:17:22.428Z,0.40
2022-12-11T10:19:36.878Z,0.40
2022-12-11T10:21:50.531Z,0.40
2022-12-11T10:24:08.304Z,0.40
2022-12-11T10:26:24.379Z,0.40
2022-12-11T10:28:38.284Z,0.50
2022-12-11T10:30:58.857Z,0.40
2022-12-11T10:33:22.092Z,0.70
2022-12-11T10:35:42.027Z,0.40
2022-12-11T10:37:56.312Z,0.50
2022-12-11T10:40:12.318Z,0.40
2022-12-11T10:42:27.300Z,0.50
2022-12-11T10:44:40.397Z,0.40
2022-12-11T10:47:06.235Z,0.40
2022-12-11T10:49:31.311Z,0.40
2022-12-11T10:51:44.918Z,0.40
2022-12-11T10:54:06.859Z,0.40
2022-12-11T10:56:28.161Z,0.50
2022-12-11T10:58:53.693Z,0.60
2022-12-11T11:01:14.107Z,0.40
2022-12-11T11:03:31.041Z,0.50
2022-12-11T11:05:49.389Z,0.40
2022-12-11T11:08:20.443Z,0.50
2022-12-11T11:10:34.126Z,0.30
2022-12-11T11:12:49.424Z,0.40
2022-12-11T11:15:14.347Z,0.40
2022-12-11T11:17:33.821Z,0.40
2022-12-11T11:19:53.099Z,0.50
2022-12-11T11:22:09.333Z,0.40
2022-12-11T11:24:39.309Z,0.50
2022-12-11T11:29:33.094Z,0.70
2022-12-11T11:31:47.046Z,0.50
2022-12-11T11:34:05.149Z,0.50
2022-12-11T11:36:27.948Z,0.40
2022-12-11T11:38:46.160Z,0.40
2022-12-11T11:41:07.695Z,0.50
2022-12-11T11:43:31.920Z,0.50
2022-12-11T11:45:53.636Z,1.00
2022-12-11T11:48:19.785Z,0.40
2022-12-11T11:50:38.780Z,0.40
2022-12-11T11:52:57.876Z,0.40
2022-12-11T11:55:21.980Z,0.30
2022-12-11T11:57:40.809Z,0.40
2022-12-11T11:59:58.410Z,0.30
2022-12-11T12:02:21.191Z,0.40
2022-12-11T12:04:38.415Z,0.30
2022-12-11T12:07:08.816Z,0.40
2022-12-11T12:09:34.552Z,3.30
2022-12-11T12:11:53.336Z,0.40
2022-12-11T12:14:50.740Z,0.40
2022-12-11T12:17:02.353Z,0.30
2022-12-11T12:19:26.668Z,0.50
2022-12-11T12:21:43.454Z,0.50
2022-12-11T12:24:17.557Z,0.50
2022-12-11T12:26:34.953Z,0.50
2022-12-11T12:28:55.925Z,0.40
2022-12-11T12:31:25.469Z,0.40
2022-12-11T12:33:48.805Z,1.20
2022-12-11T12:36:09.719Z,0.30
2022-12-11T12:38:30.678Z,0.50
2022-12-11T12:40:53.837Z,0.40
2022-12-11T12:43:20.518Z,0.50
2022-12-11T12:45:37.911Z,0.70
2022-12-11T12:47:53.626Z,0.50
2022-12-11T12:50:09.194Z,0.40
2022-12-11T12:52:26.460Z,1.20
2022-12-11T12:54:40.852Z,0.40
2022-12-11T12:56:54.731Z,0.50
2022-12-11T12:59:07.859Z,0.50
2022-12-11T13:01:25.513Z,0.40
2022-12-11T13:03:53.046Z,0.30
2022-12-11T13:06:09.371Z,0.40
2022-12-11T13:08:32.068Z,0.40
2022-12-11T13:10:46.620Z,0.40
2022-12-11T13:13:00.706Z,0.50
2022-12-11T13:15:30.930Z,0.40
2022-12-11T13:17:44.861Z,0.60
2022-12-11T13:20:22.375Z,0.40
2022-12-11T13:22:35.634Z,0.50
2022-12-11T13:25:02.848Z,0.40
2022-12-11T13:27:30.850Z,0.60
2022-12-11T13:29:45.346Z,0.60
2022-12-11T13:32:03.811Z,0.50
2022-12-11T13:34:25.017Z,0.50
2022-12-11T13:36:41.123Z,0.60
2022-12-11T13:38:57.576Z,0.50
2022-12-11T13:41:16.991Z,0.40
2022-12-11T13:43:33.664Z,0.30
2022-12-11T13:45:53.198Z,0.70
2022-12-11T13:48:07.608Z,0.90
2022-12-11T13:50:26.248Z,0.60
2022-12-11T13:52:39.773Z,0.60
2022-12-11T13:55:00.317Z,0.60
2022-12-11T13:57:23.996Z,0.50
2022-12-11T13:59:40.423Z,0.70
2022-12-11T14:01:54.622Z,0.40
2022-12-11T14:04:13.524Z,0.40
2022-12-11T14:06:27.374Z,0.40
2022-12-11T14:08:43.446Z,0.50
2022-12-11T14:10:59.466Z,0.30
2022-12-11T14:13:22.972Z,0.40
2022-12-11T14:15:39.768Z,0.50
2022-12-11T14:17:53.291Z,0.50
2022-12-11T14:20:10.732Z,0.40
2022-12-11T14:22:28.205Z,0.50
2022-12-11T14:24:51.767Z,0.50
2022-12-11T14:27:06.043Z,0.40
2022-12-11T14:29:31.413Z,0.50
2022-12-11T14:31:48.035Z,0.60
2022-12-11T14:34:05.580Z,0.50
2022-12-11T14:36:20.801Z,0.40
2022-12-11T14:38:38.580Z,0.40
2022-12-11T14:40:55.189Z,0.60
2022-12-11T14:43:12.930Z,0.70
2022-12-11T14:45:36.940Z,0.70
2022-12-11T14:47:50.667Z,0.50
2022-12-11T14:50:07.416Z,0.70
2022-12-11T14:52:27.069Z,0.70
2022-12-11T14:54:44.545Z,0.70
2022-12-11T14:56:58.385Z,0.90
2022-12-11T14:59:23.616Z,1.20
2022-12-11T15:01:40.781Z,0.60
2022-12-11T15:03:54.218Z,0.50
2022-12-11T15:06:25.297Z,0.60
2022-12-11T15:08:39.492Z,0.80
2022-12-11T15:11:10.631Z,1.00
2022-12-11T15:13:29.424Z,1.00
2022-12-11T15:15:50.496Z,0.90
2022-12-11T15:18:05.350Z,2.20
2022-12-11T15:20:29.760Z,1.00
2022-12-11T15:22:46.796Z,1.10
2022-12-11T15:25:01.030Z,0.80
2022-12-11T15:27:38.116Z,0.70
2022-12-11T15:29:51.257Z,1.40
2022-12-11T15:32:20.174Z,1.00
2022-12-11T15:34:39.373Z,0.60
2022-12-11T15:36:53.000Z,0.80
2022-12-11T15:39:09.843Z,1.30
2022-12-11T15:41:25.875Z,0.80
2022-12-11T15:43:42.211Z,1.00
2022-12-11T15:45:55.537Z,0.90
2022-12-11T15:48:09.405Z,0.80
2022-12-11T15:50:27.228Z,1.40
2022-12-11T15:52:40.759Z,0.90
2022-12-11T15:54:53.947Z,1.20
2022-12-11T15:57:11.140Z,0.80
2022-12-11T15:59:25.307Z,1.30
2022-12-11T16:01:38.525Z,1.00
2022-12-11T16:03:52.482Z,1.10
2022-12-11T16:06:05.900Z,0.80
2022-12-11T16:08:21.487Z,0.90
2022-12-11T16:10:34.808Z,1.20
2022-12-11T16:12:48.544Z,0.80
2022-12-11T16:15:01.933Z,0.70
2022-12-11T16:17:16.260Z,0.70
2022-12-11T16:19:29.485Z,0.90
2022-12-11T16:21:42.713Z,0.80
2022-12-11T16:23:55.879Z,1.00
2022-12-11T16:26:12.876Z,1.30
2022-12-11T16:28:26.377Z,1.20
2022-12-11T16:30:41.394Z,1.10
2022-12-11T16:32:55.127Z,0.90
2022-12-11T16:35:09.796Z,0.70
2022-12-11T16:37:23.290Z,1.50
2022-12-11T16:39:37.988Z,1.10
2022-12-11T16:41:51.683Z,1.80
2022-12-11T16:44:07.426Z,1.20
2022-12-11T16:46:23.931Z,9.30
2022-12-11T16:48:37.515Z,15.20
2022-12-11T16:50:50.849Z,4.40
2022-12-11T16:53:04.377Z,2.50
2022-12-11T16:55:22.338Z,1.20
2022-12-11T16:57:35.838Z,1.30
2022-12-11T16:59:50.280Z,0.60
2022-12-11T17:02:03.508Z,0.80
2022-12-11T17:04:16.689Z,0.90
2022-12-11T17:06:30.531Z,1.00
2022-12-11T17:08:43.957Z,0.80
2022-12-11T17:10:57.723Z,2.40
2022-12-11T17:13:11.125Z,0.90
2022-12-11T17:15:24.479Z,5.70
2022-12-11T17:17:37.708Z,3.50
2022-12-11T17:19:50.994Z,1.10
2022-12-11T17:22:04.741Z,1.30
2022-12-11T17:24:18.129Z,0.70
2022-12-11T17:26:31.627Z,1.00
2022-12-11T17:28:45.458Z,1.10
2022-12-11T17:30:58.957Z,2.10
2022-12-11T17:33:12.250Z,2.60
2022-12-11T17:35:25.525Z,0.70
2022-12-11T17:37:38.854Z,1.30
2022-12-11T17:39:52.151Z,0.70
2022-12-11T17:42:05.619Z,1.20
2022-12-11T17:44:18.842Z,1.30
2022-12-11T17:46:32.896Z,0.80
2022-12-11T17:48:46.485Z,0.90
2022-12-11T17:50:59.903Z,0.70
2022-12-11T17:53:14.107Z,0.60
2022-12-11T17:55:27.483Z,1.10
2022-12-11T17:57:40.999Z,0.90
2022-12-11T17:59:56.840Z,3.00
2022-12-11T18:02:10.203Z,2.00
2022-12-11T18:04:23.464Z,1.00
2022-12-11T18:06:36.612Z,0.90
2022-12-11T18:08:50.356Z,1.20
2022-12-11T18:11:07.269Z,1.30
2022-12-11T18:13:20.909Z,2.10
2022-12-11T18:15:34.123Z,2.30
2022-12-11T18:17:47.520Z,3.20
2022-12-11T18:20:00.772Z,1.80
2022-12-11T18:22:14.116Z,29.50
2022-12-11T18:24:33.008Z,2.80
2022-12-11T18:26:46.755Z,2.20
2022-12-11T18:29:00.072Z,1.90
2022-12-11T18:31:13.480Z,1.40
2022-12-11T18:33:26.706Z,1.50
2022-12-11T18:35:39.896Z,7.90
2022-12-11T18:37:53.208Z,1.70
2022-12-11T18:40:06.775Z,2.80
2022-12-11T18:42:35.178Z,1.50
2022-12-11T18:44:48.599Z,1.10
2022-12-11T18:47:01.781Z,1.80
2022-12-11T18:49:16.715Z,2.50
2022-12-11T18:51:30.006Z,2.10
2022-12-11T18:53:43.613Z,2.40
2022-12-11T18:56:00.323Z,6.60
2022-12-11T18:58:14.252Z,11.90
2022-12-11T19:00:27.976Z,7.70
2022-12-11T19:02:41.453Z,12.00
2022-12-11T19:04:54.790Z,7.00
2022-12-11T19:07:08.273Z,7.70
2022-12-11T19:09:21.650Z,7.50
2022-12-11T19:11:36.887Z,6.70
2022-12-11T19:13:50.653Z,7.40
2022-12-11T19:16:04.286Z,6.00
2022-12-11T19:18:17.557Z,5.20
2022-12-11T19:20:48.735Z,11.70
2022-12-11T19:23:03.401Z,9.50
2022-12-11T19:25:17.210Z,9.80
2022-12-11T19:27:31.077Z,13.10
2022-12-11T19:29:45.175Z,14.60
2022-12-11T19:31:58.911Z,16.20
2022-12-11T19:34:12.087Z,12.30
2022-12-11T19:36:27.583Z,16.50
2022-12-11T19:38:40.986Z,14.90
2022-12-11T19:40:54.207Z,7.70
2022-12-11T19:43:07.503Z,8.40
2022-12-11T19:45:20.999Z,11.40
2022-12-11T19:47:34.238Z,8.00
2022-12-11T19:49:47.099Z,8.40
2022-12-11T19:54:13.343Z,7.40
2022-12-11T19:56:26.905Z,8.30
2022-12-11T19:58:40.111Z,4.90
2022-12-11T20:00:53.479Z,9.40
2022-12-11T20:03:06.815Z,8.90
2022-12-11T20:05:20.139Z,6.40
2022-12-11T20:07:33.324Z,3.70
2022-12-11T20:09:46.600Z,2.80
2022-12-11T20:11:59.686Z,4.80
2022-12-11T20:14:13.010Z,5.20
2022-12-11T20:16:53.346Z,5.80
2022-12-11T20:18:59.843Z,3.20
2022-12-11T20:21:16.122Z,5.90
2022-12-11T20:23:30.523Z,10.70
2022-12-11T20:25:44.701Z,11.40
2022-12-11T20:27:59.297Z,9.00
2022-12-11T20:30:15.596Z,8.00
2022-12-11T20:32:28.868Z,10.40
2022-12-11T20:34:42.463Z,8.00
2022-12-11T20:36:56.809Z,7.00
2022-12-11T20:39:10.052Z,8.60
2022-12-11T20:41:24.926Z,12.90
2022-12-11T20:43:38.217Z,16.10
2022-12-11T20:45:56.183Z,16.40
2022-12-11T20:48:09.920Z,16.60
2022-12-11T20:50:23.867Z,13.00
2022-12-11T20:52:37.976Z,12.10
2022-12-11T20:54:51.392Z,10.50
2022-12-11T20:57:04.925Z,13.90
2022-12-11T20:59:18.378Z,15.00
2022-12-11T21:01:33.056Z,11.10
2022-12-11T21:03:48.024Z,14.00
2022-12-11T21:06:01.453Z,14.30
2022-12-11T21:08:15.187Z,16.80
2022-12-11T21:10:28.795Z,17.70
2022-12-11T21:12:42.130Z,17.00
2022-12-11T21:14:55.806Z,11.60
2022-12-11T21:17:09.317Z,9.40
2022-12-11T21:19:24.471Z,8.50
2022-12-11T21:21:40.959Z,11.10
2022-12-11T21:23:54.562Z,9.90
2022-12-11T21:26:08.319Z,15.50
2022-12-11T21:28:22.021Z,8.00
2022-12-11T21:30:35.438Z,9.20
2022-12-11T21:32:48.982Z,10.10
2022-12-11T21:35:02.403Z,13.50
2022-12-11T21:37:15.730Z,10.40
2022-12-11T21:39:29.833Z,10.90
2022-12-11T21:41:44.828Z,11.50
2022-12-11T21:46:33.609Z,15.40
2022-12-11T21:48:47.368Z,11.20
2022-12-11T21:51:07.557Z,15.70
2022-12-11T21:53:20.737Z,5.50
2022-12-11T21:55:34.009Z,8.40
2022-12-11T21:57:47.334Z,13.20
2022-12-11T22:00:00.599Z,8.40
2022-12-11T22:02:14.432Z,9.20
2022-12-11T22:04:27.805Z,9.40
2022-12-11T22:06:43.222Z,11.30
2022-12-11T22:08:56.641Z,13.80
2022-12-11T22:11:10.085Z,6.90
2022-12-11T22:13:23.678Z,6.60
2022-12-11T22:15:36.872Z,12.50
2022-12-11T22:17:50.029Z,5.80
2022-12-11T22:20:03.192Z,10.80
2022-12-11T22:22:16.802Z,7.30
2022-12-11T22:24:29.999Z,4.50
2022-12-11T22:26:43.642Z,4.00
2022-12-11T22:28:57.437Z,7.40
2022-12-11T22:31:13.021Z,14.80
2022-12-11T22:33:26.343Z,12.80
2022-12-11T22:35:39.472Z,11.90
2022-12-11T22:37:53.121Z,11.40
2022-12-11T22:40:06.826Z,9.20
2022-12-11T22:42:20.444Z,7.50
2022-12-11T22:44:33.725Z,16.20
2022-12-11T22:46:50.309Z,10.00
2022-12-11T22:49:04.554Z,9.60
2022-12-11T22:51:18.192Z,11.10
2022-12-11T22:53:31.619Z,9.70
2022-12-11T22:55:46.303Z,7.50
2022-12-11T22:57:59.664Z,9.60
2022-12-11T23:00:16.221Z,6.60
2022-12-11T23:02:29.618Z,8.00
2022-12-11T23:04:42.939Z,9.90
2022-12-11T23:06:56.173Z,8.90
2022-12-11T23:09:09.679Z,9.80
2022-12-11T23:11:26.033Z,13.80
2022-12-11T23:13:39.311Z,11.40
2022-12-11T23:15:54.296Z,11.60
2022-12-11T23:18:08.262Z,9.70
2022-12-11T23:20:21.580Z,11.80
2022-12-11T23:22:35.097Z,15.50
2022-12-11T23:24:48.438Z,10.30
2022-12-11T23:27:01.601Z,11.60
2022-12-11T23:29:15.151Z,14.20
2022-12-11T23:31:29.644Z,16.20
2022-12-11T23:33:43.044Z,16.90
2022-12-11T23:35:56.404Z,14.80
2022-12-11T23:38:09.634Z,12.90
2022-12-11T23:40:23.009Z,16.60
2022-12-11T23:42:36.692Z,16.20
2022-12-11T23:44:49.950Z,18.00
2022-12-11T23:47:03.167Z,14.50
2022-12-11T23:49:16.461Z,13.90
2022-12-11T23:51:31.028Z,14.70
2022-12-11T23:53:44.361Z,10.90
2022-12-11T23:55:58.023Z,10.90
2022-12-11T23:58:11.831Z,11.30
